Aviation Digital Data Service (ADDS)

Output produced by METARs form (1049 UTC 19 January 2019)
found at http://www.aviationweather.gov/metar/data/
 
UTDD 191030Z 10005MPS 9999 BKN110 13/03 Q1013 R09/D NOSIG RMK QFE691/0922
TAF UTDD 190900Z 1910/1922 VRB02MPS 6000 SCT060CB BKN100 
     TEMPO 1910/1913 10005MPS
       
UTDL 191030Z 08003MPS 9999 NSC 07/00 Q1015 R08/19//60 NOSIG RMK QFE722/0963
TAF UTDL 190900Z 1910/1919 24006MPS 3100 BR SCT080 
     TEMPO 1910/1915 VRB02MPS 
     TEMPO 1915/1919 1500 BR